CheckWX is a tool to help pilots better visualize weather data.  It is not intended as a substitute for an official pre-flight weather briefing.

12:53:05 UTC

VTSE METAR
Chumphon Airport
Thailand
Current

2 hours ago

VTSE 191100Z 07009KT 8000 FEW020 28/23 Q1012 NOSIG
Observed
Feb-19 @ 11:00 UTC
Wind
  • 070° at 9 KTS
Visibility
8,000 meters
Flight Rules
MVFR
Cloud Levels
  • Few at 2,000' AGL
Temperature
28°C / 82°F
Dewpoint
23°C / 73°F
Heat Index
31°C / 87°F
Humidity
74%
Altimeter
29.88" Hg
Pressure
1011.92 hPa
Previous

3 hours ago

VTSE 191000Z 06009KT 010V090 8000 -RA FEW020 BKN100 28/23 Q1012 NOSIG
Observed
Feb-19 @ 10:00 UTC
Wind
  • 060° at 9 KTS
Visibility
8,000 meters
Flight Rules
MVFR
Conditions
Light Rain
Cloud Levels
  • Few at 2,000' AGL
  • Broken at 10,000' AGL
Temperature
28°C / 82°F
Dewpoint
23°C / 73°F
Heat Index
31°C / 87°F
Humidity
74%
Altimeter
29.88" Hg
Pressure
1011.92 hPa
Previous

4 hours ago

VTSE 190900Z 36003KT 310V070 7000 -RA SCT020 OVC100 26/25 Q1012 NOSIG
Observed
Feb-19 @ 09:00 UTC
Wind
  • 360° at 3 KTS
Visibility
7,000 meters
Flight Rules
MVFR
Conditions
Light Rain
Cloud Levels
  • Scattered at 2,000' AGL
  • Overcast at 10,000' AGL
Temperature
26°C / 79°F
Dewpoint
25°C / 77°F
Humidity
94%
Altimeter
29.88" Hg
Pressure
1011.92 hPa